sensor_id;sensor_type;location;lat;lon;timestamp;P1;durP1;ratioP1;P2;durP2;ratioP2
12888;SDS011;56848;49.896;11.424;2023-05-07T04:02:50;11.57;;;8.87;;
12888;SDS011;56848;49.896;11.424;2023-05-07T04:05:16;15.00;;;9.97;;
12888;SDS011;56848;49.896;11.424;2023-05-07T04:07:42;15.03;;;9.07;;
12888;SDS011;56848;49.896;11.424;2023-05-07T04:10:09;14.17;;;10.60;;
12888;SDS011;56848;49.896;11.424;2023-05-07T04:12:35;13.97;;;9.53;;
12888;SDS011;56848;49.896;11.424;2023-05-07T04:15:01;16.43;;;9.50;;
12888;SDS011;56848;49.896;11.424;2023-05-07T04:17:27;13.50;;;9.50;;
12888;SDS011;56848;49.896;11.424;2023-05-07T04:19:53;13.20;;;9.00;;
12888;SDS011;56848;49.896;11.424;2023-05-07T04:22:19;14.40;;;8.93;;
12888;SDS011;56848;49.896;11.424;2023-05-07T04:24:45;13.17;;;9.77;;
12888;SDS011;56848;49.896;11.424;2023-05-07T04:27:11;13.77;;;9.10;;
12888;SDS011;56848;49.896;11.424;2023-05-07T04:29:37;10.70;;;8.50;;
12888;SDS011;56848;49.896;11.424;2023-05-07T04:32:07;13.03;;;9.63;;
12888;SDS011;56848;49.896;11.424;2023-05-07T04:34:33;11.53;;;8.80;;
12888;SDS011;56848;49.896;11.424;2023-05-07T04:36:59;15.00;;;9.03;;
12888;SDS011;56848;49.896;11.424;2023-05-07T04:39:25;11.60;;;9.00;;
12888;SDS011;56848;49.896;11.424;2023-05-07T04:41:51;14.47;;;10.83;;
12888;SDS011;56848;49.896;11.424;2023-05-07T04:44:17;17.10;;;11.50;;
12888;SDS011;56848;49.896;11.424;2023-05-07T04:46:43;15.13;;;11.27;;
12888;SDS011;56848;49.896;11.424;2023-05-07T04:49:09;19.60;;;11.50;;
12888;SDS011;56848;49.896;11.424;2023-05-07T04:51:35;14.13;;;10.67;;
12888;SDS011;56848;49.896;11.424;2023-05-07T04:54:03;14.90;;;10.27;;
12888;SDS011;56848;49.896;11.424;2023-05-07T04:56:29;15.87;;;11.27;;
12888;SDS011;56848;49.896;11.424;2023-05-07T04:58:55;14.60;;;10.80;;
12888;SDS011;56848;49.896;11.424;2023-05-07T05:01:21;12.70;;;10.43;;
12888;SDS011;56848;49.896;11.424;2023-05-07T05:03:47;15.47;;;10.30;;
12888;SDS011;56848;49.896;11.424;2023-05-07T05:06:13;15.30;;;10.40;;
12888;SDS011;56848;49.896;11.424;2023-05-07T05:08:39;15.10;;;10.80;;
12888;SDS011;56848;49.896;11.424;2023-05-07T05:11:05;15.00;;;11.30;;
12888;SDS011;56848;49.896;11.424;2023-05-07T05:13:31;17.57;;;11.10;;
12888;SDS011;56848;49.896;11.424;2023-05-07T05:15:57;15.67;;;10.80;;
12888;SDS011;56848;49.896;11.424;2023-05-07T05:18:23;15.33;;;10.37;;
12888;SDS011;56848;49.896;11.424;2023-05-07T05:20:49;14.63;;;10.90;;
12888;SDS011;56848;49.896;11.424;2023-05-07T05:23:15;15.60;;;11.47;;
12888;SDS011;56848;49.896;11.424;2023-05-07T05:25:41;18.33;;;11.87;;
12888;SDS011;56848;49.896;11.424;2023-05-07T05:28:07;14.50;;;10.73;;
12888;SDS011;56848;49.896;11.424;2023-05-07T05:30:33;16.50;;;11.00;;
12888;SDS011;56848;49.896;11.424;2023-05-07T05:32:59;21.53;;;11.90;;
12888;SDS011;56848;49.896;11.424;2023-05-07T05:35:25;15.07;;;10.90;;
12888;SDS011;56848;49.896;11.424;2023-05-07T05:37:50;16.13;;;11.03;;
12888;SDS011;56848;49.896;11.424;2023-05-07T05:40:16;15.87;;;11.07;;
12888;SDS011;56848;49.896;11.424;2023-05-07T05:42:42;15.87;;;10.13;;
12888;SDS011;56848;49.896;11.424;2023-05-07T05:45:09;16.80;;;10.30;;
12888;SDS011;56848;49.896;11.424;2023-05-07T05:47:35;14.53;;;9.93;;
12888;SDS011;56848;49.896;11.424;2023-05-07T05:50:01;14.07;;;9.90;;
12888;SDS011;56848;49.896;11.424;2023-05-07T05:52:27;12.23;;;9.77;;
12888;SDS011;56848;49.896;11.424;2023-05-07T05:54:53;14.97;;;9.90;;
12888;SDS011;56848;49.896;11.424;2023-05-07T05:57:19;15.17;;;10.63;;
12888;SDS011;56848;49.896;11.424;2023-05-07T05:59:46;19.60;;;10.87;;
12888;SDS011;56848;49.896;11.424;2023-05-07T06:02:12;13.97;;;9.87;;
12888;SDS011;56848;49.896;11.424;2023-05-07T06:04:38;15.97;;;11.53;;
12888;SDS011;56848;49.896;11.424;2023-05-07T06:07:04;15.30;;;10.60;;
12888;SDS011;56848;49.896;11.424;2023-05-07T06:09:30;17.57;;;10.87;;
12888;SDS011;56848;49.896;11.424;2023-05-07T06:11:56;17.37;;;10.47;;
12888;SDS011;56848;49.896;11.424;2023-05-07T06:14:22;14.23;;;10.90;;
12888;SDS011;56848;49.896;11.424;2023-05-07T06:16:48;14.27;;;10.57;;
12888;SDS011;56848;49.896;11.424;2023-05-07T06:19:14;17.20;;;10.30;;
12888;SDS011;56848;49.896;11.424;2023-05-07T06:21:43;18.57;;;11.20;;
12888;SDS011;56848;49.896;11.424;2023-05-07T06:24:09;15.83;;;11.03;;
12888;SDS011;56848;49.896;11.424;2023-05-07T06:26:35;15.83;;;11.00;;
12888;SDS011;56848;49.896;11.424;2023-05-07T06:29:01;17.73;;;11.63;;
12888;SDS011;56848;49.896;11.424;2023-05-07T06:31:29;14.93;;;11.10;;
12888;SDS011;56848;49.896;11.424;2023-05-07T06:33:56;29.77;;;11.33;;
12888;SDS011;56848;49.896;11.424;2023-05-07T06:36:23;13.30;;;10.30;;
12888;SDS011;56848;49.896;11.424;2023-05-07T06:38:49;19.53;;;10.53;;
12888;SDS011;56848;49.896;11.424;2023-05-07T06:41:15;13.10;;;10.17;;
12888;SDS011;56848;49.896;11.424;2023-05-07T06:43:41;16.37;;;11.53;;
12888;SDS011;56848;49.896;11.424;2023-05-07T06:46:07;13.43;;;9.03;;
12888;SDS011;56848;49.896;11.424;2023-05-07T06:48:33;22.83;;;10.20;;
12888;SDS011;56848;49.896;11.424;2023-05-07T06:50:59;17.57;;;11.00;;
12888;SDS011;56848;49.896;11.424;2023-05-07T06:53:25;15.47;;;10.30;;
12888;SDS011;56848;49.896;11.424;2023-05-07T06:55:51;13.60;;;10.17;;
12888;SDS011;56848;49.896;11.424;2023-05-07T06:58:17;15.80;;;10.90;;
12888;SDS011;56848;49.896;11.424;2023-05-07T07:00:43;13.30;;;9.90;;
12888;SDS011;56848;49.896;11.424;2023-05-07T07:03:10;15.60;;;10.10;;
12888;SDS011;56848;49.896;11.424;2023-05-07T07:05:36;15.53;;;9.67;;
12888;SDS011;56848;49.896;11.424;2023-05-07T07:08:02;12.83;;;9.77;;
12888;SDS011;56848;49.896;11.424;2023-05-07T07:10:28;14.57;;;9.57;;
12888;SDS011;56848;49.896;11.424;2023-05-07T07:12:54;14.03;;;10.30;;
12888;SDS011;56848;49.896;11.424;2023-05-07T07:15:20;15.53;;;10.30;;
12888;SDS011;56848;49.896;11.424;2023-05-07T07:17:47;18.23;;;10.57;;
12888;SDS011;56848;49.896;11.424;2023-05-07T07:20:13;12.57;;;9.77;;
12888;SDS011;56848;49.896;11.424;2023-05-07T07:22:39;11.70;;;9.20;;
12888;SDS011;56848;49.896;11.424;2023-05-07T07:25:05;19.63;;;10.17;;
12888;SDS011;56848;49.896;11.424;2023-05-07T07:27:31;12.97;;;8.87;;
12888;SDS011;56848;49.896;11.424;2023-05-07T07:29:57;15.97;;;9.30;;
12888;SDS011;56848;49.896;11.424;2023-05-07T07:32:23;12.03;;;9.23;;
12888;SDS011;56848;49.896;11.424;2023-05-07T07:34:49;13.63;;;8.47;;
12888;SDS011;56848;49.896;11.424;2023-05-07T07:37:15;11.77;;;8.80;;
12888;SDS011;56848;49.896;11.424;2023-05-07T07:39:41;10.77;;;8.33;;
12888;SDS011;56848;49.896;11.424;2023-05-07T07:42:07;14.60;;;9.53;;
12888;SDS011;56848;49.896;11.424;2023-05-07T07:44:33;14.33;;;10.00;;
12888;SDS011;56848;49.896;11.424;2023-05-07T07:46:59;14.07;;;9.80;;
12888;SDS011;56848;49.896;11.424;2023-05-07T07:49:26;12.83;;;9.37;;
12888;SDS011;56848;49.896;11.424;2023-05-07T07:51:52;13.93;;;8.30;;
12888;SDS011;56848;49.896;11.424;2023-05-07T07:54:18;11.70;;;8.40;;
12888;SDS011;56848;49.896;11.424;2023-05-07T07:56:44;12.23;;;9.20;;
12888;SDS011;56848;49.896;11.424;2023-05-07T07:59:10;12.90;;;9.20;;
12888;SDS011;56848;49.896;11.424;2023-05-07T08:01:36;14.43;;;9.60;;
12888;SDS011;56848;49.896;11.424;2023-05-07T08:04:02;14.13;;;10.10;;
12888;SDS011;56848;49.896;11.424;2023-05-07T08:06:28;13.33;;;8.90;;
12888;SDS011;56848;49.896;11.424;2023-05-07T08:08:54;14.73;;;9.50;;
12888;SDS011;56848;49.896;11.424;2023-05-07T08:11:20;11.40;;;8.43;;
12888;SDS011;56848;49.896;11.424;2023-05-07T08:13:46;14.30;;;9.57;;
12888;SDS011;56848;49.896;11.424;2023-05-07T08:16:12;13.10;;;8.57;;
12888;SDS011;56848;49.896;11.424;2023-05-07T08:18:39;12.70;;;9.40;;
12888;SDS011;56848;49.896;11.424;2023-05-07T08:21:05;13.03;;;8.73;;
12888;SDS011;56848;49.896;11.424;2023-05-07T08:23:34;12.33;;;9.90;;
12888;SDS011;56848;49.896;11.424;2023-05-07T08:26:00;11.13;;;8.63;;
12888;SDS011;56848;49.896;11.424;2023-05-07T08:28:26;11.20;;;7.60;;
12888;SDS011;56848;49.896;11.424;2023-05-07T08:30:53;11.87;;;8.63;;
12888;SDS011;56848;49.896;11.424;2023-05-07T08:33:19;10.80;;;8.03;;
12888;SDS011;56848;49.896;11.424;2023-05-07T08:35:45;11.77;;;8.70;;
12888;SDS011;56848;49.896;11.424;2023-05-07T08:38:11;11.13;;;8.60;;
12888;SDS011;56848;49.896;11.424;2023-05-07T08:40:37;11.33;;;8.60;;
12888;SDS011;56848;49.896;11.424;2023-05-07T08:43:05;17.73;;;8.60;;
12888;SDS011;56848;49.896;11.424;2023-05-07T08:45:32;12.10;;;8.40;;
12888;SDS011;56848;49.896;11.424;2023-05-07T08:47:59;13.20;;;8.00;;
12888;SDS011;56848;49.896;11.424;2023-05-07T08:50:25;9.70;;;7.10;;
12888;SDS011;56848;49.896;11.424;2023-05-07T08:52:51;11.33;;;8.07;;
12888;SDS011;56848;49.896;11.424;2023-05-07T08:55:17;14.97;;;7.73;;
12888;SDS011;56848;49.896;11.424;2023-05-07T08:57:44;10.13;;;7.90;;
12888;SDS011;56848;49.896;11.424;2023-05-07T09:00:10;12.73;;;8.03;;
12888;SDS011;56848;49.896;11.424;2023-05-07T09:02:36;11.27;;;7.50;;
12888;SDS011;56848;49.896;11.424;2023-05-07T09:05:03;9.77;;;7.13;;
12888;SDS011;56848;49.896;11.424;2023-05-07T09:07:29;9.60;;;8.00;;
12888;SDS011;56848;49.896;11.424;2023-05-07T09:09:56;11.33;;;8.53;;
12888;SDS011;56848;49.896;11.424;2023-05-07T09:12:22;8.43;;;6.80;;
12888;SDS011;56848;49.896;11.424;2023-05-07T09:14:49;10.00;;;7.43;;
12888;SDS011;56848;49.896;11.424;2023-05-07T09:17:15;13.80;;;7.73;;
12888;SDS011;56848;49.896;11.424;2023-05-07T09:19:42;12.60;;;7.30;;
12888;SDS011;56848;49.896;11.424;2023-05-07T09:22:09;14.40;;;7.00;;
12888;SDS011;56848;49.896;11.424;2023-05-07T09:24:35;8.40;;;5.60;;
12888;SDS011;56848;49.896;11.424;2023-05-07T09:27:03;8.00;;;6.17;;
12888;SDS011;56848;49.896;11.424;2023-05-07T09:29:29;8.57;;;6.03;;
12888;SDS011;56848;49.896;11.424;2023-05-07T09:32:00;9.50;;;6.90;;
12888;SDS011;56848;49.896;11.424;2023-05-07T09:34:26;11.43;;;6.80;;
12888;SDS011;56848;49.896;11.424;2023-05-07T09:36:52;8.10;;;6.83;;
12888;SDS011;56848;49.896;11.424;2023-05-07T09:39:19;14.53;;;5.93;;
12888;SDS011;56848;49.896;11.424;2023-05-07T09:41:48;6.80;;;5.70;;
12888;SDS011;56848;49.896;11.424;2023-05-07T09:44:16;11.00;;;7.53;;
12888;SDS011;56848;49.896;11.424;2023-05-07T09:46:43;10.70;;;6.77;;
12888;SDS011;56848;49.896;11.424;2023-05-07T09:49:19;7.73;;;6.23;;
12888;SDS011;56848;49.896;11.424;2023-05-07T09:51:50;8.87;;;6.50;;
12888;SDS011;56848;49.896;11.424;2023-05-07T09:54:16;8.53;;;6.30;;
12888;SDS011;56848;49.896;11.424;2023-05-07T09:56:43;10.50;;;7.37;;
12888;SDS011;56848;49.896;11.424;2023-05-07T09:59:10;8.37;;;5.70;;
12888;SDS011;56848;49.896;11.424;2023-05-07T10:01:38;7.97;;;6.47;;
12888;SDS011;56848;49.896;11.424;2023-05-07T10:04:07;7.33;;;6.30;;
12888;SDS011;56848;49.896;11.424;2023-05-07T10:06:36;11.13;;;7.93;;
12888;SDS011;56848;49.896;11.424;2023-05-07T10:09:05;7.80;;;6.17;;
12888;SDS011;56848;49.896;11.424;2023-05-07T10:11:35;14.37;;;6.57;;
12888;SDS011;56848;49.896;11.424;2023-05-07T10:14:04;9.83;;;7.00;;
12888;SDS011;56848;49.896;11.424;2023-05-07T10:16:34;8.67;;;6.13;;
12888;SDS011;56848;49.896;11.424;2023-05-07T10:19:04;8.50;;;6.80;;
12888;SDS011;56848;49.896;11.424;2023-05-07T10:21:30;11.00;;;6.57;;
12888;SDS011;56848;49.896;11.424;2023-05-07T10:24:03;9.37;;;7.03;;
12888;SDS011;56848;49.896;11.424;2023-05-07T10:26:35;8.50;;;6.37;;
12888;SDS011;56848;49.896;11.424;2023-05-07T10:29:03;6.80;;;5.50;;
12888;SDS011;56848;49.896;11.424;2023-05-07T10:31:39;11.90;;;5.90;;
12888;SDS011;56848;49.896;11.424;2023-05-07T10:34:11;8.57;;;5.87;;
12888;SDS011;56848;49.896;11.424;2023-05-07T10:36:38;7.53;;;6.43;;
12888;SDS011;56848;49.896;11.424;2023-05-07T10:39:05;7.80;;;6.60;;
12888;SDS011;56848;49.896;11.424;2023-05-07T10:41:31;7.70;;;6.03;;
12888;SDS011;56848;49.896;11.424;2023-05-07T10:43:57;11.07;;;8.43;;
12888;SDS011;56848;49.896;11.424;2023-05-07T10:46:26;7.47;;;5.93;;
12888;SDS011;56848;49.896;11.424;2023-05-07T10:51:28;8.10;;;6.47;;
12888;SDS011;56848;49.896;11.424;2023-05-07T10:56:33;6.57;;;5.07;;
12888;SDS011;56848;49.896;11.424;2023-05-07T10:59:18;4.87;;;4.00;;
12888;SDS011;56848;49.896;11.424;2023-05-07T11:01:54;6.40;;;5.00;;
12888;SDS011;56848;49.896;11.424;2023-05-07T11:04:21;5.20;;;4.40;;
12888;SDS011;56848;49.896;11.424;2023-05-07T11:12:16;7.80;;;6.13;;
12888;SDS011;56848;49.896;11.424;2023-05-07T11:17:08;7.40;;;5.40;;
12888;SDS011;56848;49.896;11.424;2023-05-07T11:19:47;8.07;;;5.47;;
12888;SDS011;56848;49.896;11.424;2023-05-07T11:25:00;6.20;;;4.93;;
12888;SDS011;56848;49.896;11.424;2023-05-07T11:27:27;7.67;;;4.40;;
12888;SDS011;56848;49.896;11.424;2023-05-07T11:29:53;7.17;;;5.37;;
12888;SDS011;56848;49.896;11.424;2023-05-07T11:32:26;5.67;;;4.40;;
12888;SDS011;56848;49.896;11.424;2023-05-07T11:34:55;4.90;;;4.00;;
12888;SDS011;56848;49.896;11.424;2023-05-07T11:37:22;4.27;;;3.80;;
12888;SDS011;56848;49.896;11.424;2023-05-07T11:39:48;4.10;;;3.70;;
12888;SDS011;56848;49.896;11.424;2023-05-07T11:42:28;4.60;;;4.10;;
12888;SDS011;56848;49.896;11.424;2023-05-07T11:44:55;5.00;;;4.20;;
12888;SDS011;56848;49.896;11.424;2023-05-07T11:47:21;7.43;;;4.40;;
12888;SDS011;56848;49.896;11.424;2023-05-07T11:49:51;6.60;;;4.43;;
12888;SDS011;56848;49.896;11.424;2023-05-07T11:52:18;5.20;;;3.57;;
12888;SDS011;56848;49.896;11.424;2023-05-07T11:54:54;3.73;;;3.43;;
12888;SDS011;56848;49.896;11.424;2023-05-07T11:57:22;4.23;;;3.63;;
12888;SDS011;56848;49.896;11.424;2023-05-07T11:59:48;9.90;;;4.67;;
12888;SDS011;56848;49.896;11.424;2023-05-07T12:02:18;5.93;;;5.23;;
12888;SDS011;56848;49.896;11.424;2023-05-07T12:04:44;5.03;;;4.13;;
12888;SDS011;56848;49.896;11.424;2023-05-07T12:07:16;10.67;;;4.13;;
12888;SDS011;56848;49.896;11.424;2023-05-07T12:09:43;5.37;;;3.67;;
12888;SDS011;56848;49.896;11.424;2023-05-07T12:12:09;6.93;;;4.13;;
12888;SDS011;56848;49.896;11.424;2023-05-07T12:14:42;5.10;;;3.80;;
12888;SDS011;56848;49.896;11.424;2023-05-07T12:17:08;3.50;;;3.00;;
12888;SDS011;56848;49.896;11.424;2023-05-07T12:19:35;5.23;;;3.97;;
12888;SDS011;56848;49.896;11.424;2023-05-07T12:22:04;4.30;;;3.90;;
12888;SDS011;56848;49.896;11.424;2023-05-07T12:24:46;4.57;;;3.83;;
12888;SDS011;56848;49.896;11.424;2023-05-07T12:27:13;3.73;;;3.03;;
12888;SDS011;56848;49.896;11.424;2023-05-07T12:29:39;3.33;;;2.90;;
12888;SDS011;56848;49.896;11.424;2023-05-07T12:32:12;2.93;;;2.60;;
12888;SDS011;56848;49.896;11.424;2023-05-07T12:34:39;2.90;;;2.57;;
12888;SDS011;56848;49.896;11.424;2023-05-07T12:37:05;5.40;;;2.93;;
12888;SDS011;56848;49.896;11.424;2023-05-07T12:39:30;4.40;;;2.93;;
12888;SDS011;56848;49.896;11.424;2023-05-07T12:41:58;4.07;;;3.17;;
12888;SDS011;56848;49.896;11.424;2023-05-07T12:44:25;3.10;;;2.77;;
12888;SDS011;56848;49.896;11.424;2023-05-07T12:46:51;12.10;;;3.67;;
12888;SDS011;56848;49.896;11.424;2023-05-07T12:49:17;4.17;;;2.97;;
12888;SDS011;56848;49.896;11.424;2023-05-07T12:51:43;4.07;;;3.10;;
12888;SDS011;56848;49.896;11.424;2023-05-07T12:54:10;3.43;;;3.13;;
12888;SDS011;56848;49.896;11.424;2023-05-07T12:56:36;4.27;;;2.90;;
12888;SDS011;56848;49.896;11.424;2023-05-07T12:59:02;4.40;;;2.83;;
12888;SDS011;56848;49.896;11.424;2023-05-07T13:01:29;2.70;;;2.50;;
12888;SDS011;56848;49.896;11.424;2023-05-07T13:04:01;3.90;;;2.90;;
12888;SDS011;56848;49.896;11.424;2023-05-07T13:06:29;4.73;;;3.40;;
12888;SDS011;56848;49.896;11.424;2023-05-07T13:08:56;6.70;;;4.20;;
12888;SDS011;56848;49.896;11.424;2023-05-07T13:11:22;4.50;;;3.27;;
12888;SDS011;56848;49.896;11.424;2023-05-07T13:13:48;3.77;;;3.10;;
12888;SDS011;56848;49.896;11.424;2023-05-07T13:16:14;7.13;;;3.30;;
12888;SDS011;56848;49.896;11.424;2023-05-07T13:18:40;6.17;;;3.43;;
12888;SDS011;56848;49.896;11.424;2023-05-07T13:21:08;5.57;;;3.70;;
12888;SDS011;56848;49.896;11.424;2023-05-07T13:23:35;4.30;;;3.37;;
12888;SDS011;56848;49.896;11.424;2023-05-07T13:26:03;3.93;;;2.70;;
12888;SDS011;56848;49.896;11.424;2023-05-07T13:28:29;3.50;;;3.03;;
12888;SDS011;56848;49.896;11.424;2023-05-07T13:30:55;4.00;;;2.60;;
12888;SDS011;56848;49.896;11.424;2023-05-07T13:33:21;7.67;;;2.70;;
12888;SDS011;56848;49.896;11.424;2023-05-07T13:35:47;5.83;;;2.80;;
12888;SDS011;56848;49.896;11.424;2023-05-07T13:38:13;3.40;;;2.97;;
12888;SDS011;56848;49.896;11.424;2023-05-07T13:40:40;4.30;;;3.20;;
12888;SDS011;56848;49.896;11.424;2023-05-07T13:43:06;4.07;;;3.57;;
12888;SDS011;56848;49.896;11.424;2023-05-07T13:45:32;3.93;;;3.53;;
12888;SDS011;56848;49.896;11.424;2023-05-07T13:47:58;7.23;;;4.30;;
12888;SDS011;56848;49.896;11.424;2023-05-07T13:50:24;4.93;;;3.40;;
12888;SDS011;56848;49.896;11.424;2023-05-07T13:52:54;3.40;;;3.07;;
12888;SDS011;56848;49.896;11.424;2023-05-07T13:55:21;3.17;;;2.87;;
12888;SDS011;56848;49.896;11.424;2023-05-07T13:57:51;3.97;;;2.80;;
12888;SDS011;56848;49.896;11.424;2023-05-07T14:00:20;3.37;;;2.87;;
12888;SDS011;56848;49.896;11.424;2023-05-07T14:02:46;5.10;;;3.00;;
12888;SDS011;56848;49.896;11.424;2023-05-07T14:05:12;2.93;;;2.70;;
12888;SDS011;56848;49.896;11.424;2023-05-07T14:07:38;2.57;;;2.37;;
12888;SDS011;56848;49.896;11.424;2023-05-07T14:10:04;3.70;;;2.87;;
12888;SDS011;56848;49.896;11.424;2023-05-07T14:12:31;3.03;;;2.60;;
12888;SDS011;56848;49.896;11.424;2023-05-07T14:14:57;4.43;;;2.83;;
12888;SDS011;56848;49.896;11.424;2023-05-07T14:17:23;11.53;;;3.27;;
12888;SDS011;56848;49.896;11.424;2023-05-07T14:19:51;3.67;;;3.27;;
12888;SDS011;56848;49.896;11.424;2023-05-07T14:22:19;3.30;;;3.00;;
12888;SDS011;56848;49.896;11.424;2023-05-07T14:24:46;4.20;;;3.20;;
12888;SDS011;56848;49.896;11.424;2023-05-07T14:27:12;4.17;;;3.70;;
12888;SDS011;56848;49.896;11.424;2023-05-07T14:29:38;3.50;;;3.20;;
12888;SDS011;56848;49.896;11.424;2023-05-07T14:32:04;3.67;;;3.10;;
12888;SDS011;56848;49.896;11.424;2023-05-07T14:34:31;4.10;;;3.20;;
12888;SDS011;56848;49.896;11.424;2023-05-07T14:36:57;5.27;;;3.73;;
12888;SDS011;56848;49.896;11.424;2023-05-07T14:39:23;8.97;;;3.53;;
12888;SDS011;56848;49.896;11.424;2023-05-07T14:41:50;3.40;;;3.10;;
12888;SDS011;56848;49.896;11.424;2023-05-07T14:44:16;4.10;;;3.67;;
12888;SDS011;56848;49.896;11.424;2023-05-07T14:46:42;3.90;;;3.50;;
12888;SDS011;56848;49.896;11.424;2023-05-07T14:49:08;19.90;;;3.53;;
12888;SDS011;56848;49.896;11.424;2023-05-07T14:51:41;5.00;;;3.13;;
12888;SDS011;56848;49.896;11.424;2023-05-07T14:54:07;4.93;;;3.30;;
12888;SDS011;56848;49.896;11.424;2023-05-07T14:56:34;3.90;;;3.30;;
12888;SDS011;56848;49.896;11.424;2023-05-07T14:59:00;10.33;;;3.63;;
12888;SDS011;56848;49.896;11.424;2023-05-07T15:01:27;4.23;;;3.83;;
12888;SDS011;56848;49.896;11.424;2023-05-07T15:03:53;5.60;;;3.90;;
12888;SDS011;56848;49.896;11.424;2023-05-07T15:06:20;7.60;;;3.83;;
12888;SDS011;56848;49.896;11.424;2023-05-07T15:08:46;4.60;;;3.77;;
12888;SDS011;56848;49.896;11.424;2023-05-07T15:11:13;4.40;;;3.80;;
12888;SDS011;56848;49.896;11.424;2023-05-07T15:13:39;4.07;;;3.40;;
12888;SDS011;56848;49.896;11.424;2023-05-07T15:16:05;4.47;;;4.03;;
12888;SDS011;56848;49.896;11.424;2023-05-07T15:18:31;4.47;;;3.77;;
12888;SDS011;56848;49.896;11.424;2023-05-07T15:20:57;4.53;;;4.13;;
12888;SDS011;56848;49.896;11.424;2023-05-07T15:23:23;5.43;;;4.57;;
12888;SDS011;56848;49.896;11.424;2023-05-07T15:25:49;7.17;;;4.73;;
12888;SDS011;56848;49.896;11.424;2023-05-07T15:28:15;6.93;;;4.60;;
12888;SDS011;56848;49.896;11.424;2023-05-07T15:30:41;5.47;;;4.90;;
12888;SDS011;56848;49.896;11.424;2023-05-07T15:33:07;6.43;;;4.90;;
12888;SDS011;56848;49.896;11.424;2023-05-07T15:35:33;7.50;;;5.20;;
12888;SDS011;56848;49.896;11.424;2023-05-07T15:37:59;9.87;;;5.20;;
12888;SDS011;56848;49.896;11.424;2023-05-07T15:40:28;6.57;;;5.07;;
12888;SDS011;56848;49.896;11.424;2023-05-07T15:42:54;10.00;;;5.50;;
12888;SDS011;56848;49.896;11.424;2023-05-07T15:45:21;6.73;;;4.73;;
12888;SDS011;56848;49.896;11.424;2023-05-07T15:47:47;6.63;;;5.00;;
12888;SDS011;56848;49.896;11.424;2023-05-07T15:50:13;5.97;;;5.07;;
12888;SDS011;56848;49.896;11.424;2023-05-07T15:52:39;6.77;;;5.07;;
12888;SDS011;56848;49.896;11.424;2023-05-07T15:55:06;6.27;;;4.63;;
12888;SDS011;56848;49.896;11.424;2023-05-07T15:57:33;7.57;;;4.77;;
12888;SDS011;56848;49.896;11.424;2023-05-07T15:59:59;7.83;;;5.50;;
12888;SDS011;56848;49.896;11.424;2023-05-07T16:02:25;9.60;;;5.50;;
12888;SDS011;56848;49.896;11.424;2023-05-07T16:04:51;12.20;;;6.20;;
12888;SDS011;56848;49.896;11.424;2023-05-07T16:07:19;9.60;;;6.00;;
12888;SDS011;56848;49.896;11.424;2023-05-07T16:09:45;6.93;;;5.90;;
12888;SDS011;56848;49.896;11.424;2023-05-07T16:12:11;9.13;;;6.63;;
12888;SDS011;56848;49.896;11.424;2023-05-07T16:14:37;6.60;;;5.60;;
12888;SDS011;56848;49.896;11.424;2023-05-07T16:17:03;6.73;;;5.30;;
12888;SDS011;56848;49.896;11.424;2023-05-07T16:19:29;12.40;;;6.50;;
12888;SDS011;56848;49.896;11.424;2023-05-07T16:21:55;8.07;;;6.20;;
12888;SDS011;56848;49.896;11.424;2023-05-07T16:24:21;7.83;;;6.03;;
12888;SDS011;56848;49.896;11.424;2023-05-07T16:26:47;7.77;;;5.40;;
12888;SDS011;56848;49.896;11.424;2023-05-07T16:29:13;7.27;;;6.27;;
12888;SDS011;56848;49.896;11.424;2023-05-07T16:31:40;13.03;;;6.00;;
12888;SDS011;56848;49.896;11.424;2023-05-07T16:34:06;8.80;;;5.80;;
12888;SDS011;56848;49.896;11.424;2023-05-07T16:36:32;14.73;;;6.07;;
12888;SDS011;56848;49.896;11.424;2023-05-07T16:38:58;12.17;;;7.13;;
12888;SDS011;56848;49.896;11.424;2023-05-07T16:41:24;9.73;;;6.37;;
12888;SDS011;56848;49.896;11.424;2023-05-07T16:43:50;5.70;;;5.10;;
12888;SDS011;56848;49.896;11.424;2023-05-07T16:46:16;8.13;;;6.03;;
12888;SDS011;56848;49.896;11.424;2023-05-07T16:48:42;11.07;;;6.23;;
12888;SDS011;56848;49.896;11.424;2023-05-07T16:51:07;7.40;;;6.10;;
12888;SDS011;56848;49.896;11.424;2023-05-07T16:53:33;8.63;;;6.20;;
12888;SDS011;56848;49.896;11.424;2023-05-07T16:56:03;8.63;;;6.93;;
12888;SDS011;56848;49.896;11.424;2023-05-07T16:58:29;9.27;;;6.27;;
12888;SDS011;56848;49.896;11.424;2023-05-07T17:00:55;6.10;;;5.07;;
12888;SDS011;56848;49.896;11.424;2023-05-07T17:03:21;6.40;;;5.03;;
12888;SDS011;56848;49.896;11.424;2023-05-07T17:05:47;5.23;;;4.17;;
12888;SDS011;56848;49.896;11.424;2023-05-07T17:08:13;6.97;;;4.60;;
12888;SDS011;56848;49.896;11.424;2023-05-07T17:10:39;7.03;;;4.47;;
12888;SDS011;56848;49.896;11.424;2023-05-07T17:13:05;8.43;;;4.50;;
12888;SDS011;56848;49.896;11.424;2023-05-07T17:15:31;5.13;;;4.13;;
12888;SDS011;56848;49.896;11.424;2023-05-07T17:17:57;5.67;;;4.00;;
12888;SDS011;56848;49.896;11.424;2023-05-07T17:20:23;4.40;;;3.97;;
12888;SDS011;56848;49.896;11.424;2023-05-07T17:22:49;6.20;;;4.60;;
12888;SDS011;56848;49.896;11.424;2023-05-07T17:25:15;8.27;;;4.30;;
12888;SDS011;56848;49.896;11.424;2023-05-07T17:27:41;5.70;;;4.27;;
12888;SDS011;56848;49.896;11.424;2023-05-07T17:30:07;7.40;;;5.27;;
12888;SDS011;56848;49.896;11.424;2023-05-07T17:32:33;5.57;;;4.10;;
12888;SDS011;56848;49.896;11.424;2023-05-07T17:34:59;4.50;;;4.00;;
12888;SDS011;56848;49.896;11.424;2023-05-07T17:37:25;6.63;;;3.73;;
12888;SDS011;56848;49.896;11.424;2023-05-07T17:39:52;9.60;;;4.77;;
12888;SDS011;56848;49.896;11.424;2023-05-07T17:42:18;5.20;;;4.30;;
12888;SDS011;56848;49.896;11.424;2023-05-07T17:44:44;8.93;;;5.30;;
12888;SDS011;56848;49.896;11.424;2023-05-07T17:47:10;5.20;;;3.93;;
12888;SDS011;56848;49.896;11.424;2023-05-07T17:49:38;5.63;;;4.60;;
12888;SDS011;56848;49.896;11.424;2023-05-07T17:52:04;8.90;;;4.57;;
12888;SDS011;56848;49.896;11.424;2023-05-07T17:54:30;6.40;;;5.47;;
12888;SDS011;56848;49.896;11.424;2023-05-07T17:56:56;6.63;;;4.67;;
12888;SDS011;56848;49.896;11.424;2023-05-07T17:59:22;6.13;;;4.83;;
12888;SDS011;56848;49.896;11.424;2023-05-07T18:01:48;7.90;;;5.10;;
12888;SDS011;56848;49.896;11.424;2023-05-07T18:04:14;7.67;;;5.90;;
12888;SDS011;56848;49.896;11.424;2023-05-07T18:06:40;8.30;;;5.80;;
12888;SDS011;56848;49.896;11.424;2023-05-07T18:09:06;22.23;;;5.67;;
12888;SDS011;56848;49.896;11.424;2023-05-07T18:11:32;8.63;;;5.87;;
12888;SDS011;56848;49.896;11.424;2023-05-07T18:13:58;6.73;;;5.50;;
12888;SDS011;56848;49.896;11.424;2023-05-07T18:16:24;8.20;;;5.30;;
12888;SDS011;56848;49.896;11.424;2023-05-07T18:18:50;9.10;;;5.30;;
12888;SDS011;56848;49.896;11.424;2023-05-07T18:21:16;6.47;;;5.03;;
12888;SDS011;56848;49.896;11.424;2023-05-07T18:23:43;8.50;;;5.43;;
12888;SDS011;56848;49.896;11.424;2023-05-07T18:26:09;8.03;;;5.40;;
12888;SDS011;56848;49.896;11.424;2023-05-07T18:28:35;8.13;;;5.63;;
12888;SDS011;56848;49.896;11.424;2023-05-07T18:31:01;17.23;;;6.70;;
12888;SDS011;56848;49.896;11.424;2023-05-07T18:33:27;8.17;;;6.00;;
12888;SDS011;56848;49.896;11.424;2023-05-07T18:35:53;9.07;;;6.80;;
12888;SDS011;56848;49.896;11.424;2023-05-07T18:38:19;10.97;;;6.60;;
12888;SDS011;56848;49.896;11.424;2023-05-07T18:40:45;9.10;;;5.70;;